createdAt,value
2019-05-12T00:00:08.317Z,183.32
2019-05-12T00:00:50.682Z,172.53
2019-05-12T00:01:38.978Z,179.35
2019-05-12T00:02:17.859Z,281.45
2019-05-12T00:02:59.114Z,248.55
2019-05-12T00:03:37.809Z,157.67
2019-05-12T00:04:18.724Z,218.05
2019-05-12T00:04:58.268Z,303.12
2019-05-12T00:05:38.305Z,115.85
2019-05-12T00:06:17.664Z,186.67
2019-05-12T00:06:58.536Z,154.75
2019-05-12T00:07:38.180Z,221.20
2019-05-12T00:08:18.868Z,217.62
2019-05-12T00:08:59.323Z,176.90
2019-05-12T00:09:38.838Z,211.68
2019-05-12T00:10:18.240Z,188.78
2019-05-12T00:10:58.275Z,182.97
2019-05-12T00:11:37.928Z,232.47
2019-05-12T00:12:18.462Z,147.02
2019-05-12T00:12:58.189Z,156.63
2019-05-12T00:13:38.534Z,147.55
2019-05-12T00:14:20.612Z,185.12
2019-05-12T00:14:59.220Z,137.00
2019-05-12T00:15:38.557Z,111.37
2019-05-12T00:16:40.376Z,165.55
2019-05-12T00:17:13.940Z,212.23
2019-05-12T00:17:53.171Z,162.53
2019-05-12T00:18:32.853Z,190.65
2019-05-12T00:19:11.691Z,136.15
2019-05-12T00:19:50.282Z,85.85
2019-05-12T00:20:29.118Z,185.05
2019-05-12T00:21:08.838Z,181.95
2019-05-12T00:21:50.134Z,129.35
2019-05-12T00:22:34.037Z,222.78
2019-05-12T00:23:23.704Z,154.95
2019-05-12T00:24:08.793Z,199.32
2019-05-12T00:24:47.904Z,151.55
2019-05-12T00:25:28.317Z,300.85
2019-05-12T00:26:07.984Z,119.93
2019-05-12T00:26:48.346Z,195.07
2019-05-12T00:27:28.455Z,244.28
2019-05-12T00:28:07.821Z,343.00
2019-05-12T00:28:48.241Z,152.82
2019-05-12T00:29:28.735Z,299.88
2019-05-12T00:30:10.114Z,173.75
2019-05-12T00:30:52.122Z,232.83
2019-05-12T00:31:30.675Z,169.60
2019-05-12T00:32:09.235Z,110.12
2019-05-12T00:32:48.016Z,310.63
2019-05-12T00:33:28.262Z,262.70
2019-05-12T00:34:07.818Z,223.97
2019-05-12T00:34:48.054Z,230.25
2019-05-12T00:35:28.458Z,242.95
2019-05-12T00:36:08.072Z,210.10
2019-05-12T00:36:48.495Z,195.07
2019-05-12T00:37:28.769Z,281.47
2019-05-12T00:38:09.525Z,295.77
2019-05-12T00:38:48.918Z,223.53
2019-05-12T00:39:28.021Z,265.90
2019-05-12T00:40:08.813Z,138.18
2019-05-12T00:40:47.893Z,341.23
2019-05-12T00:41:28.354Z,135.88
2019-05-12T00:42:07.838Z,291.65
2019-05-12T00:42:48.433Z,225.57
2019-05-12T00:43:28.113Z,400.42
2019-05-12T00:44:08.816Z,207.47
2019-05-12T00:44:47.887Z,306.75
2019-05-12T00:45:28.937Z,215.05
2019-05-12T00:46:07.933Z,248.60
2019-05-12T00:46:48.567Z,287.77
2019-05-12T00:47:28.053Z,174.05
2019-05-12T00:48:09.033Z,270.77
2019-05-12T00:48:48.236Z,240.22
2019-05-12T00:49:28.961Z,284.57
2019-05-12T00:50:09.129Z,184.18
2019-05-12T00:50:48.677Z,296.07
2019-05-12T00:51:28.891Z,228.80
2019-05-12T00:52:08.139Z,335.08
2019-05-12T00:52:48.880Z,340.68
2019-05-12T00:53:39.368Z,266.63
2019-05-12T00:54:09.277Z,276.55
2019-05-12T00:54:48.373Z,275.10
2019-05-12T00:55:28.979Z,237.35
2019-05-12T00:56:08.499Z,266.05
2019-05-12T00:56:52.702Z,263.23
2019-05-12T00:57:31.469Z,302.32
2019-05-12T00:58:10.068Z,356.47
2019-05-12T00:58:48.884Z,306.65
2019-05-12T00:59:27.926Z,289.20
2019-05-12T01:00:08.771Z,295.65
2019-05-12T01:00:48.657Z,303.15
2019-05-12T01:01:28.598Z,350.95
2019-05-12T01:02:08.010Z,262.08
2019-05-12T01:02:48.601Z,379.13
2019-05-12T01:03:27.999Z,369.98
2019-05-12T01:04:08.947Z,336.00
2019-05-12T01:04:50.291Z,278.02
2019-05-12T01:05:31.955Z,345.07
2019-05-12T01:06:10.730Z,376.12
2019-05-12T01:06:51.951Z,272.05
2019-05-12T01:07:30.533Z,280.32
2019-05-12T01:08:09.703Z,415.32
2019-05-12T01:08:48.705Z,364.75
2019-05-12T01:09:28.534Z,280.98
2019-05-12T01:10:08.614Z,220.30
2019-05-12T01:10:50.973Z,285.27
2019-05-12T01:11:29.702Z,332.52
2019-05-12T01:12:10.807Z,330.35
2019-05-12T01:12:49.414Z,269.60
2019-05-12T01:13:30.425Z,278.15
2019-05-12T01:14:09.849Z,344.57
2019-05-12T01:14:48.685Z,250.78
2019-05-12T01:15:28.791Z,306.17
2019-05-12T01:16:08.133Z,304.32
2019-05-12T01:16:48.594Z,273.85
2019-05-12T01:17:28.245Z,360.15
2019-05-12T01:18:09.294Z,312.48
2019-05-12T01:18:47.972Z,499.48
2019-05-12T01:19:28.824Z,398.23
2019-05-12T01:20:08.847Z,348.95
2019-05-12T01:20:47.921Z,338.18
2019-05-12T01:21:28.585Z,277.40
2019-05-12T01:22:08.419Z,295.48
2019-05-12T01:22:50.508Z,199.27
2019-05-12T01:23:28.642Z,212.75
2019-05-12T01:24:08.838Z,294.20
2019-05-12T01:24:48.338Z,267.02
2019-05-12T01:25:28.900Z,265.25
2019-05-12T01:26:08.814Z,230.77
2019-05-12T01:26:49.925Z,306.75
2019-05-12T01:27:29.817Z,285.05
2019-05-12T01:28:08.558Z,253.02
2019-05-12T01:28:48.796Z,387.88
2019-05-12T01:29:28.197Z,313.92
2019-05-12T01:30:08.702Z,300.48
2019-05-12T01:30:47.968Z,357.53
2019-05-12T01:31:28.577Z,340.00
2019-05-12T01:32:18.297Z,353.60
2019-05-12T01:32:58.115Z,316.42
2019-05-12T01:33:38.130Z,298.40
2019-05-12T01:34:18.192Z,306.87
2019-05-12T01:34:57.784Z,266.75
2019-05-12T01:35:38.762Z,315.02
2019-05-12T01:36:18.126Z,329.98
2019-05-12T01:37:18.389Z,295.77
2019-05-12T01:37:58.844Z,309.95
2019-05-12T01:38:37.954Z,279.23
2019-05-12T01:39:18.773Z,293.77
2019-05-12T01:39:59.980Z,271.25
2019-05-12T01:40:39.475Z,341.93
2019-05-12T01:41:18.234Z,393.48
2019-05-12T01:41:58.700Z,312.05
2019-05-12T01:42:38.244Z,240.60
2019-05-12T01:43:18.705Z,287.98
2019-05-12T01:43:59.984Z,439.52
2019-05-12T01:44:38.855Z,503.00
2019-05-12T01:45:18.029Z,322.05
2019-05-12T01:45:58.924Z,281.35
2019-05-12T01:46:38.300Z,291.27
2019-05-12T01:47:18.809Z,284.85
2019-05-12T01:47:59.141Z,345.60
2019-05-12T01:48:38.251Z,415.43
2019-05-12T01:49:18.705Z,302.85
2019-05-12T01:49:58.128Z,401.77
2019-05-12T01:50:38.587Z,308.73
2019-05-12T01:51:21.832Z,372.05
2019-05-12T01:52:01.531Z,263.15
2019-05-12T01:52:41.068Z,209.17
2019-05-12T01:53:20.035Z,308.87
2019-05-12T01:54:10.977Z,378.83
2019-05-12T01:54:38.671Z,297.87
2019-05-12T01:55:18.617Z,306.00
2019-05-12T01:56:01.944Z,259.67
2019-05-12T01:56:40.388Z,302.47
2019-05-12T01:57:19.772Z,310.57
2019-05-12T01:58:01.097Z,356.47
2019-05-12T01:58:39.881Z,212.85
2019-05-12T01:59:18.550Z,321.30
2019-05-12T01:59:58.633Z,382.48
2019-05-12T02:00:38.755Z,264.95
2019-05-12T02:01:22.704Z,378.80
2019-05-12T02:02:01.582Z,274.65
2019-05-12T02:02:40.389Z,261.50
2019-05-12T02:03:19.110Z,305.87
2019-05-12T02:03:58.975Z,253.77
2019-05-12T02:04:55.381Z,198.47
2019-05-12T02:05:34.399Z,225.43
2019-05-12T02:06:18.510Z,335.65
2019-05-12T02:06:57.857Z,321.82
2019-05-12T02:07:39.409Z,375.05
2019-05-12T02:08:22.765Z,425.68
2019-05-12T02:09:03.160Z,258.07
2019-05-12T02:09:41.854Z,448.67
2019-05-12T02:10:21.262Z,269.98
2019-05-12T02:11:18.106Z,20.32
2019-05-12T02:11:58.098Z,6.17
2019-05-12T02:12:38.134Z,5.70
2019-05-12T02:13:18.164Z,17.98
2019-05-12T02:13:57.879Z,6.20
2019-05-12T02:14:38.194Z,50.27
2019-05-12T02:15:18.360Z,93.17
2019-05-12T02:15:57.859Z,22.90
2019-05-12T02:16:38.478Z,6.53
2019-05-12T02:17:17.965Z,7.87
2019-05-12T02:17:58.836Z,6.17
2019-05-12T02:18:38.187Z,6.77
2019-05-12T02:19:17.942Z,7.37
2019-05-12T02:19:58.586Z,5.95
2019-05-12T02:20:38.184Z,6.73
2019-05-12T02:21:18.943Z,6.25
2019-05-12T02:21:57.912Z,6.85
2019-05-12T02:22:38.853Z,8.40
2019-05-12T02:23:17.873Z,6.33
2019-05-12T02:23:58.332Z,7.80
2019-05-12T02:24:39.043Z,73.70
2019-05-12T02:25:38.032Z,6.90
2019-05-12T02:26:19.017Z,64.47
2019-05-12T02:26:57.956Z,123.70
2019-05-12T02:27:39.442Z,81.65
2019-05-12T02:28:18.570Z,7.20
2019-05-12T02:28:58.625Z,7.17
2019-05-12T02:31:21.726Z,21.85
2019-05-12T02:32:00.712Z,6.35
2019-05-12T02:32:49.453Z,6.25
2019-05-12T02:33:24.452Z,5.70
2019-05-12T02:34:05.493Z,14.83
2019-05-12T02:34:45.573Z,6.00
2019-05-12T02:35:24.753Z,6.37
2019-05-12T02:36:04.691Z,42.15
2019-05-12T02:36:44.808Z,60.63
2019-05-12T02:37:26.209Z,6.05
2019-05-12T02:38:05.052Z,6.30
2019-05-12T02:38:45.253Z,6.00
2019-05-12T02:39:24.838Z,17.35
2019-05-12T02:40:04.811Z,7.53
2019-05-12T02:40:44.855Z,90.30
2019-05-12T02:41:44.723Z,7.45
2019-05-12T02:42:24.388Z,6.20
2019-05-12T02:43:05.490Z,19.45
2019-05-12T02:43:45.673Z,5.72
2019-05-12T02:44:24.831Z,7.12
2019-05-12T02:45:05.524Z,6.00
2019-05-12T02:45:44.677Z,6.20
2019-05-12T02:46:25.578Z,8.13
2019-05-12T02:47:05.140Z,6.22
2019-05-12T02:47:45.866Z,5.90
2019-05-12T02:48:25.068Z,8.13
2019-05-12T02:49:04.842Z,6.50
2019-05-12T02:49:44.903Z,20.68
2019-05-12T02:50:47.895Z,6.47
2019-05-12T02:51:26.635Z,5.90
2019-05-12T02:52:05.809Z,53.98
2019-05-12T02:52:44.841Z,6.17
2019-05-12T02:53:24.810Z,6.40
2019-05-12T02:54:05.533Z,6.30
2019-05-12T02:54:54.438Z,9.95
2019-05-12T02:55:25.694Z,6.28
2019-05-12T02:56:05.178Z,6.60
2019-05-12T02:56:44.894Z,6.53
2019-05-12T02:57:25.606Z,5.65
2019-05-12T02:58:05.188Z,6.72
2019-05-12T02:58:45.293Z,6.70
2019-05-12T02:59:25.241Z,6.62
2019-05-12T03:00:07.379Z,6.10
2019-05-12T03:00:46.192Z,6.00
2019-05-12T03:01:25.089Z,6.58
2019-05-12T03:02:05.259Z,125.95
2019-05-12T03:02:44.355Z,6.17
2019-05-12T03:03:25.063Z,6.90
2019-05-12T03:04:05.704Z,6.55
2019-05-12T03:04:44.302Z,6.33
2019-05-12T03:05:24.833Z,6.72
2019-05-12T03:06:05.431Z,6.37
2019-05-12T03:06:44.640Z,6.60
2019-05-12T03:07:25.422Z,6.53
2019-05-12T03:08:05.332Z,7.00
2019-05-12T03:08:46.931Z,21.67
2019-05-12T03:09:25.348Z,6.62
2019-05-12T03:10:05.326Z,6.90
2019-05-12T03:10:45.115Z,6.70
2019-05-12T03:11:24.926Z,7.00
2019-05-12T03:12:05.987Z,7.37
2019-05-12T03:12:45.217Z,6.23
2019-05-12T03:13:25.266Z,6.87
2019-05-12T03:14:04.484Z,6.60
2019-05-12T03:14:44.688Z,10.07
2019-05-12T03:15:25.056Z,9.43
2019-05-12T03:16:04.890Z,7.28
2019-05-12T03:16:45.351Z,6.67
2019-05-12T03:17:25.349Z,7.00
2019-05-12T03:18:06.299Z,6.62
2019-05-12T03:18:44.952Z,6.93
2019-05-12T03:19:25.250Z,6.67
2019-05-12T03:20:04.969Z,6.65
2019-05-12T03:20:45.497Z,6.73
2019-05-12T03:21:25.122Z,7.37
2019-05-12T03:22:05.022Z,6.72
2019-05-12T03:22:44.912Z,7.30
2019-05-12T03:23:24.794Z,7.40
2019-05-12T03:24:06.092Z,7.03
2019-05-12T03:24:44.927Z,7.30
2019-05-12T03:25:29.946Z,7.58
2019-05-12T03:26:05.791Z,7.75
2019-05-12T03:26:45.130Z,6.90
2019-05-12T03:27:25.620Z,7.33
2019-05-12T03:28:07.345Z,7.53
2019-05-12T03:28:44.639Z,6.70
2019-05-12T03:29:25.116Z,6.75
2019-05-12T03:30:30.640Z,6.30
2019-05-12T03:31:09.421Z,7.00
2019-05-12T03:31:49.322Z,7.78
2019-05-12T03:32:28.456Z,7.42
2019-05-12T03:33:10.763Z,7.40
2019-05-12T03:33:52.953Z,6.95
2019-05-12T03:34:29.263Z,7.75
2019-05-12T03:35:09.168Z,8.05
2019-05-12T03:35:52.947Z,7.40
2019-05-12T03:36:34.652Z,7.55
2019-05-12T03:37:08.645Z,6.70
2019-05-12T03:37:48.962Z,7.15
2019-05-12T03:38:28.090Z,6.87
2019-05-12T03:39:10.374Z,6.75
2019-05-12T03:39:49.124Z,6.70
2019-05-12T03:40:27.879Z,9.93
2019-05-12T03:41:07.177Z,19.05
2019-05-12T03:41:45.498Z,6.83
2019-05-12T03:42:25.496Z,48.98
2019-05-12T03:43:05.895Z,24.77
2019-05-12T03:43:46.103Z,6.85
2019-05-12T03:44:26.922Z,7.33
2019-05-12T03:45:08.054Z,7.37
2019-05-12T03:45:48.115Z,7.97
2019-05-12T03:46:26.879Z,7.45
2019-05-12T03:47:05.561Z,7.25
2019-05-12T03:47:45.503Z,6.85
2019-05-12T03:48:25.206Z,7.35
2019-05-12T03:49:05.258Z,6.92
2019-05-12T03:49:45.400Z,7.40
2019-05-12T03:50:24.654Z,7.28
2019-05-12T03:51:05.745Z,7.25
2019-05-12T03:51:45.727Z,6.65
2019-05-12T03:52:24.579Z,7.20
2019-05-12T03:53:09.015Z,7.40
2019-05-12T03:53:45.516Z,6.65
2019-05-12T03:54:24.574Z,6.00
2019-05-12T03:55:05.553Z,12.00
2019-05-12T03:55:47.003Z,9.18
2019-05-12T03:56:26.157Z,6.08
2019-05-12T03:57:04.826Z,10.35
2019-05-12T03:57:44.998Z,6.53
2019-05-12T03:58:25.608Z,6.58
2019-05-12T03:59:06.215Z,7.65
2019-05-12T03:59:45.004Z,7.35
2019-05-12T04:00:24.930Z,7.62
2019-05-12T04:01:04.698Z,12.37
2019-05-12T04:01:45.553Z,7.30
2019-05-12T04:02:25.105Z,60.50
2019-05-12T04:03:07.485Z,7.08
2019-05-12T04:03:46.383Z,7.78
2019-05-12T04:04:25.290Z,7.85
2019-05-12T04:05:05.646Z,7.53
2019-05-12T04:05:45.371Z,8.30
2019-05-12T04:06:24.818Z,8.40
2019-05-12T04:07:05.147Z,8.15
2019-05-12T04:07:45.016Z,7.55
2019-05-12T04:08:24.678Z,7.25
2019-05-12T04:09:04.732Z,8.40
2019-05-12T04:09:45.117Z,29.00
2019-05-12T04:10:24.760Z,7.40
2019-05-12T04:11:05.252Z,7.17
2019-05-12T04:11:44.520Z,8.70
2019-05-12T04:12:25.447Z,8.05
2019-05-12T04:13:07.715Z,7.97
2019-05-12T04:13:49.722Z,8.43
2019-05-12T04:14:28.189Z,8.25
2019-05-12T04:15:09.526Z,8.05
2019-05-12T04:15:48.437Z,7.25
2019-05-12T04:16:27.707Z,8.30
2019-05-12T04:17:06.199Z,7.95
2019-05-12T04:17:47.616Z,7.92
2019-05-12T04:18:26.427Z,8.18
2019-05-12T04:19:05.675Z,8.23
2019-05-12T04:19:44.805Z,10.18
2019-05-12T04:20:25.396Z,7.70
2019-05-12T04:21:05.538Z,10.80
2019-05-12T04:21:44.992Z,8.08
2019-05-12T04:22:24.876Z,74.75
2019-05-12T04:23:06.042Z,8.80
2019-05-12T04:23:47.173Z,10.53
2019-05-12T04:24:25.542Z,7.40
2019-05-12T04:25:06.251Z,8.23
2019-05-12T04:25:51.988Z,7.75
2019-05-12T04:26:27.524Z,10.28
2019-05-12T04:27:08.299Z,7.55
2019-05-12T04:27:47.022Z,17.92
2019-05-12T04:28:25.818Z,7.60
2019-05-12T04:29:05.249Z,7.40
2019-05-12T04:29:44.207Z,18.30
2019-05-12T04:30:24.992Z,7.95
2019-05-12T04:31:05.425Z,7.20
2019-05-12T04:31:44.380Z,8.78
2019-05-12T04:32:25.083Z,8.25
2019-05-12T04:33:04.806Z,25.88
2019-05-12T04:33:45.250Z,7.85
2019-05-12T04:34:25.125Z,7.75
2019-05-12T04:35:04.685Z,49.65
2019-05-12T04:35:45.274Z,7.92
2019-05-12T04:36:24.824Z,20.40
2019-05-12T04:37:04.548Z,28.60
2019-05-12T04:37:44.842Z,8.00
2019-05-12T04:38:24.891Z,8.58
2019-05-12T04:39:04.381Z,27.65
2019-05-12T04:39:44.735Z,8.15
2019-05-12T04:40:24.780Z,7.12
2019-05-12T04:41:05.883Z,22.25
2019-05-12T04:41:44.692Z,8.00
2019-05-12T04:42:25.118Z,6.75
2019-05-12T04:43:05.895Z,6.80
2019-05-12T04:43:45.068Z,6.35
2019-05-12T04:44:25.085Z,6.97
2019-05-12T04:45:09.549Z,6.60
2019-05-12T04:45:48.177Z,6.83
2019-05-12T04:46:27.108Z,7.20
2019-05-12T04:47:08.703Z,6.80
2019-05-12T04:47:47.445Z,7.37
2019-05-12T04:48:26.240Z,7.28
2019-05-12T04:49:05.678Z,8.43
2019-05-12T04:49:45.280Z,49.00
2019-05-12T04:50:24.654Z,7.22
2019-05-12T04:51:05.151Z,6.55
2019-05-12T04:51:45.210Z,7.28
2019-05-12T04:52:24.940Z,6.60
2019-05-12T04:53:14.355Z,6.40
2019-05-12T04:53:54.901Z,7.87
2019-05-12T04:54:35.593Z,9.05
2019-05-12T04:55:15.149Z,7.25
2019-05-12T04:56:10.809Z,7.20
2019-05-12T04:56:39.889Z,57.13
2019-05-12T04:57:21.094Z,6.53
2019-05-12T04:57:59.933Z,7.03
2019-05-12T04:58:40.081Z,8.57
2019-05-12T04:59:20.259Z,21.30
2019-05-12T04:59:58.984Z,7.28
2019-05-12T05:00:38.071Z,6.87
2019-05-12T05:01:17.999Z,6.35
2019-05-12T05:01:56.985Z,6.47
2019-05-12T05:02:36.683Z,7.00
2019-05-12T05:03:15.786Z,6.90
2019-05-12T05:03:54.798Z,11.70
2019-05-12T05:04:34.705Z,63.45
2019-05-12T05:05:19.247Z,7.28
2019-05-12T05:05:58.276Z,7.75
2019-05-12T05:06:39.651Z,8.87
2019-05-12T05:07:18.203Z,6.75
2019-05-12T05:07:57.189Z,6.20
2019-05-12T05:08:36.250Z,6.50
2019-05-12T05:09:14.979Z,7.15
2019-05-12T05:10:34.126Z,6.60
2019-05-12T05:11:14.839Z,6.42
2019-05-12T05:11:54.301Z,6.67
2019-05-12T05:12:34.524Z,9.68
2019-05-12T05:13:15.032Z,6.60
2019-05-12T05:13:54.783Z,7.08
2019-05-12T05:14:34.122Z,6.70
2019-05-12T05:15:14.684Z,6.62
2019-05-12T05:15:54.926Z,25.17
2019-05-12T05:16:34.799Z,6.33
2019-05-12T05:17:15.027Z,6.20
2019-05-12T05:17:54.973Z,9.03
2019-05-12T05:18:34.397Z,8.93
2019-05-12T05:19:13.873Z,7.17
2019-05-12T05:19:53.495Z,23.38
2019-05-12T05:20:34.355Z,7.00
2019-05-12T05:21:13.885Z,7.87
2019-05-12T05:21:54.162Z,5.83
2019-05-12T05:22:38.082Z,6.20
2019-05-12T05:23:16.189Z,7.03
2019-05-12T05:23:55.016Z,7.17
2019-05-12T05:24:34.017Z,7.45
2019-05-12T05:25:14.487Z,6.50
2019-05-12T05:25:53.828Z,6.33
2019-05-12T05:26:36.683Z,6.45
2019-05-12T05:27:13.838Z,6.33
2019-05-12T05:27:53.340Z,6.25
2019-05-12T05:28:34.015Z,5.97
2019-05-12T05:29:13.506Z,6.95
2019-05-12T05:29:54.347Z,6.55
2019-05-12T05:30:33.894Z,6.55
2019-05-12T05:31:13.999Z,6.35
2019-05-12T05:31:53.440Z,6.50
2019-05-12T05:32:35.668Z,6.10
2019-05-12T05:33:14.764Z,6.33
2019-05-12T05:33:53.647Z,9.08
2019-05-12T05:34:34.274Z,6.53
2019-05-12T05:35:13.674Z,6.78
2019-05-12T05:35:54.280Z,6.65
2019-05-12T05:36:34.563Z,7.30
2019-05-12T05:37:14.553Z,6.00
2019-05-12T05:37:53.985Z,6.55
2019-05-12T05:38:34.279Z,6.80
2019-05-12T05:39:14.162Z,5.78
2019-05-12T05:43:29.739Z,7.00
2019-05-12T05:44:08.706Z,6.45
2019-05-12T05:44:48.115Z,6.72
2019-05-12T05:45:27.290Z,6.65
2019-05-12T05:46:07.960Z,6.50
2019-05-12T05:48:49.506Z,6.15
2019-05-12T05:50:29.454Z,6.70
2019-05-12T05:51:09.099Z,6.55
2019-05-12T05:51:53.908Z,6.65
2019-05-12T05:52:33.083Z,6.92
2019-05-12T05:53:27.142Z,5.72
2019-05-12T05:54:05.898Z,5.92
2019-05-12T05:54:44.877Z,6.00
2019-05-12T05:57:29.919Z,6.97
2019-05-12T05:58:10.588Z,6.10
2019-05-12T05:58:51.783Z,5.90
2019-05-12T05:59:36.527Z,6.70
2019-05-12T06:00:17.294Z,5.55
2019-05-12T06:00:54.766Z,6.00
2019-05-12T06:01:54.837Z,6.22
2019-05-12T06:02:55.943Z,6.53
2019-05-12T06:03:34.338Z,5.75
2019-05-12T06:04:14.082Z,6.08
2019-05-12T06:04:56.207Z,5.40
2019-05-12T06:05:39.738Z,5.35
2019-05-12T06:06:18.675Z,5.25
2019-05-12T06:06:57.649Z,14.98
2019-05-12T06:07:54.290Z,5.85
2019-05-12T06:08:50.782Z,5.80
2019-05-12T06:09:44.471Z,5.65
2019-05-12T06:10:34.741Z,5.60
2019-05-12T06:11:14.842Z,5.35
2019-05-12T06:11:50.054Z,5.15
2019-05-12T06:12:28.639Z,5.90
2019-05-12T06:13:07.645Z,6.00
2019-05-12T06:13:47.844Z,5.37
2019-05-12T06:14:26.810Z,5.70
2019-05-12T06:15:24.555Z,5.97
2019-05-12T06:16:04.422Z,5.08
2019-05-12T06:16:43.688Z,6.30
2019-05-12T06:17:23.681Z,6.70
2019-05-12T06:18:03.756Z,5.70
2019-05-12T06:18:43.980Z,6.00
2019-05-12T06:19:26.076Z,5.30
2019-05-12T06:20:04.403Z,6.05
2019-05-12T06:25:18.295Z,5.25
2019-05-12T06:25:57.282Z,4.85
2019-05-12T06:26:36.054Z,5.90
2019-05-12T06:27:20.613Z,5.53
2019-05-12T06:28:00.065Z,5.45
2019-05-12T06:28:39.484Z,5.87
2019-05-12T06:29:20.186Z,5.28
2019-05-12T06:30:00.738Z,5.05
2019-05-12T06:30:54.492Z,5.00
2019-05-12T06:31:54.153Z,5.25
2019-05-12T06:32:33.627Z,5.67
2019-05-12T06:33:14.415Z,5.75
2019-05-12T06:33:53.611Z,5.17
2019-05-12T06:34:34.319Z,5.12
2019-05-12T06:35:15.888Z,5.50
2019-05-12T06:35:54.331Z,5.37
2019-05-12T06:36:56.992Z,5.05
2019-05-12T06:37:34.249Z,5.08
2019-05-12T06:38:13.541Z,5.60
2019-05-12T06:38:54.086Z,4.47
2019-05-12T06:39:34.331Z,4.87
2019-05-12T06:40:14.107Z,4.47
2019-05-12T06:40:54.428Z,4.67
2019-05-12T06:41:33.799Z,4.83
2019-05-12T06:44:55.047Z,4.62
2019-05-12T06:46:04.559Z,4.87
2019-05-12T06:47:26.051Z,5.45
2019-05-12T06:48:07.786Z,4.72
2019-05-12T06:48:46.871Z,5.92
2019-05-12T06:49:25.838Z,4.83
2019-05-12T06:50:05.896Z,4.80
2019-05-12T06:50:49.434Z,4.87
2019-05-12T06:51:28.595Z,4.37
2019-05-12T06:52:16.706Z,5.10
2019-05-12T06:52:55.591Z,4.85
2019-05-12T06:53:34.588Z,4.95
2019-05-12T06:54:33.554Z,4.58
2019-05-12T06:55:14.600Z,5.10
2019-05-12T06:55:54.003Z,4.35
2019-05-12T06:56:39.233Z,4.92
2019-05-12T06:57:24.431Z,4.58
2019-05-12T06:57:58.650Z,5.10
2019-05-12T06:58:37.395Z,4.60
2019-05-12T06:59:16.806Z,5.03
2019-05-12T06:59:55.426Z,4.90
2019-05-12T07:00:35.119Z,4.80
2019-05-12T07:01:19.146Z,4.92
2019-05-12T07:02:00.189Z,5.17
2019-05-12T07:02:48.453Z,5.25
2019-05-12T07:03:19.379Z,5.15
2019-05-12T07:04:00.628Z,5.10
2019-05-12T07:04:41.198Z,5.08
2019-05-12T07:05:18.462Z,4.50
2019-05-12T07:05:57.462Z,4.20
2019-05-12T07:06:37.455Z,4.97
2019-05-12T07:07:16.117Z,4.35
2019-05-12T07:08:17.920Z,4.70
2019-05-12T07:09:03.589Z,4.90
2019-05-12T07:09:36.657Z,4.80
2019-05-12T07:10:35.075Z,4.80
2019-05-12T07:11:01.644Z,5.10
2019-05-12T07:11:42.440Z,4.10
2019-05-12T07:12:15.993Z,4.37
2019-05-12T07:13:00.993Z,4.13
2019-05-12T07:13:37.614Z,4.50
2019-05-12T07:14:22.392Z,13.38
2019-05-12T07:15:03.583Z,4.20
2019-05-12T07:15:41.043Z,4.60
2019-05-12T07:16:26.742Z,4.85
2019-05-12T07:17:06.048Z,4.60
2019-05-12T07:17:55.729Z,4.58
2019-05-12T07:18:36.999Z,4.28
2019-05-12T07:19:17.262Z,4.10
2019-05-12T07:19:56.986Z,4.47
2019-05-12T07:20:38.972Z,4.97
2019-05-12T07:21:20.166Z,4.85
2019-05-12T07:22:03.570Z,4.75
2019-05-12T07:22:45.884Z,4.37
2019-05-12T07:23:25.808Z,4.05
2019-05-12T07:24:09.083Z,5.00
2019-05-12T07:24:50.440Z,4.73
2019-05-12T07:25:31.254Z,5.10
2019-05-12T07:26:05.025Z,4.58
2019-05-12T07:26:47.562Z,4.97
2019-05-12T07:27:54.941Z,4.45
2019-05-12T07:28:53.916Z,4.58
2019-05-12T07:29:30.988Z,4.45
2019-05-12T07:30:10.685Z,4.37
2019-05-12T07:30:50.174Z,4.33
2019-05-12T07:31:29.022Z,4.42
2019-05-12T07:32:16.551Z,5.17
2019-05-12T07:32:51.116Z,4.42
2019-05-12T07:33:35.249Z,4.40
2019-05-12T07:34:08.767Z,4.75
2019-05-12T07:34:47.763Z,4.27
2019-05-12T07:35:45.986Z,3.90
2019-05-12T07:36:24.870Z,4.60
2019-05-12T07:37:04.395Z,4.23
2019-05-12T07:37:43.731Z,4.60
2019-05-12T07:38:25.686Z,4.17
2019-05-12T07:39:05.373Z,4.20
2019-05-12T07:39:49.469Z,3.80
2019-05-12T07:40:30.103Z,4.83
2019-05-12T07:41:10.555Z,4.30
2019-05-12T07:41:50.895Z,4.20
2019-05-12T07:42:31.372Z,4.70
2019-05-12T07:43:10.050Z,4.13
2019-05-12T07:43:50.639Z,5.17
2019-05-12T07:44:34.341Z,4.37
2019-05-12T07:45:11.472Z,4.53
2019-05-12T07:45:56.637Z,4.13
2019-05-12T07:46:34.074Z,4.33
2019-05-12T07:47:13.791Z,4.42
2019-05-12T07:47:54.128Z,4.77
2019-05-12T07:48:33.651Z,4.83
2019-05-12T07:49:14.134Z,4.30
2019-05-12T07:49:53.776Z,4.23
2019-05-12T07:50:34.488Z,4.22
2019-05-12T07:51:13.759Z,4.60
2019-05-12T07:51:54.203Z,4.60
2019-05-12T07:52:33.824Z,4.60
2019-05-12T07:53:14.484Z,4.77
2019-05-12T07:53:55.171Z,3.93
2019-05-12T07:54:39.441Z,4.40
2019-05-12T07:55:17.545Z,4.60
2019-05-12T07:55:56.510Z,4.40
2019-05-12T07:56:35.851Z,4.70
2019-05-12T07:57:17.437Z,5.00
2019-05-12T07:57:58.703Z,4.70
2019-05-12T07:58:40.887Z,4.53
2019-05-12T07:59:21.006Z,4.87
2019-05-12T07:59:59.918Z,4.73
2019-05-12T08:00:38.851Z,4.60
2019-05-12T08:01:18.874Z,4.53
2019-05-12T08:01:58.022Z,4.83
2019-05-12T08:02:36.779Z,4.70
2019-05-12T08:03:20.963Z,3.97
2019-05-12T08:04:00.031Z,4.37
2019-05-12T08:05:19.399Z,4.83
2019-05-12T08:05:57.410Z,4.37
2019-05-12T08:06:41.774Z,3.83
2019-05-12T08:07:19.938Z,4.23
2019-05-12T08:08:00.655Z,4.53
2019-05-12T08:08:36.206Z,4.70
2019-05-12T08:09:15.011Z,4.87
2019-05-12T08:09:56.048Z,4.50
2019-05-12T08:10:35.459Z,4.97
2019-05-12T08:12:34.043Z,4.60
2019-05-12T08:12:59.391Z,4.67
2019-05-12T08:14:13.727Z,4.42
2019-05-12T08:14:50.365Z,4.45
2019-05-12T08:15:29.394Z,4.67
2019-05-12T08:16:10.007Z,4.37
2019-05-12T08:16:51.322Z,4.00
2019-05-12T08:17:30.310Z,4.40
2019-05-12T08:18:09.307Z,4.83
2019-05-12T08:18:48.119Z,4.70
2019-05-12T08:19:28.630Z,4.43
2019-05-12T08:20:28.395Z,4.00
2019-05-12T08:21:07.196Z,4.20
2019-05-12T08:21:49.055Z,4.87
2019-05-12T08:22:29.311Z,4.40
2019-05-12T08:23:10.341Z,5.30
2019-05-12T08:23:46.870Z,4.17
2019-05-12T08:24:27.002Z,4.33
2019-05-12T08:25:06.631Z,5.67
2019-05-12T08:25:53.397Z,5.20
2019-05-12T08:26:33.499Z,4.07
2019-05-12T08:27:14.332Z,4.37
2019-05-12T08:28:04.194Z,4.33
2019-05-12T08:28:36.095Z,4.47
2019-05-12T08:29:17.022Z,4.57
2019-05-12T08:30:01.150Z,4.73
2019-05-12T08:30:45.387Z,4.40
2019-05-12T08:31:32.955Z,4.70
2019-05-12T08:32:09.856Z,4.85
2019-05-12T08:32:56.255Z,4.93
2019-05-12T08:33:30.003Z,4.90
2019-05-12T08:34:08.943Z,4.20
2019-05-12T08:34:47.772Z,4.20
2019-05-12T08:35:34.586Z,5.03
2019-05-12T08:36:11.398Z,4.47
2019-05-12T08:36:53.376Z,4.40
2019-05-12T08:37:30.295Z,5.00
2019-05-12T08:38:24.871Z,4.30
2019-05-12T08:39:06.229Z,4.10
2019-05-12T08:40:10.253Z,4.23
2019-05-12T08:40:51.123Z,4.70
2019-05-12T08:41:29.705Z,5.30
2019-05-12T08:42:08.997Z,4.47
2019-05-12T08:42:47.851Z,4.03
2019-05-12T08:43:26.838Z,5.00
2019-05-12T08:44:05.943Z,5.10
2019-05-12T08:44:44.854Z,4.00
2019-05-12T08:45:27.943Z,4.10
2019-05-12T08:46:10.045Z,4.80
2019-05-12T08:46:51.812Z,4.80
2019-05-12T08:47:28.975Z,4.37
2019-05-12T08:48:10.067Z,5.20
2019-05-12T08:48:51.543Z,4.30
2019-05-12T08:49:26.569Z,4.77
2019-05-12T08:50:05.678Z,3.80
2019-05-12T08:50:46.138Z,4.57
2019-05-12T08:51:33.741Z,4.53
2019-05-12T08:52:25.093Z,4.30
2019-05-12T08:53:04.611Z,4.00
2019-05-12T08:53:44.126Z,4.90
2019-05-12T08:54:23.297Z,4.25
2019-05-12T08:55:04.280Z,4.10
2019-05-12T08:55:43.598Z,4.80
2019-05-12T08:56:24.031Z,3.92
2019-05-12T08:57:03.856Z,4.43
2019-05-12T08:58:03.594Z,4.50
2019-05-12T08:58:51.073Z,5.20
2019-05-12T08:59:27.329Z,4.65
2019-05-12T09:00:08.599Z,4.50
2019-05-12T09:00:48.782Z,4.13
2019-05-12T09:01:28.645Z,3.90
2019-05-12T09:02:09.972Z,4.40
2019-05-12T09:02:50.427Z,4.22
2019-05-12T09:03:30.317Z,3.93
2019-05-12T09:04:12.020Z,4.37
2019-05-12T09:04:51.494Z,4.20
2019-05-12T09:05:33.696Z,4.17
2019-05-12T09:06:09.242Z,4.90
2019-05-12T09:06:50.152Z,4.30
2019-05-12T09:07:30.446Z,4.17
2019-05-12T09:08:09.560Z,4.50
2019-05-12T09:08:49.459Z,4.30
2019-05-12T09:09:28.276Z,4.67
2019-05-12T09:10:23.407Z,4.87
2019-05-12T09:11:03.588Z,4.15
2019-05-12T09:11:43.892Z,4.30
2019-05-12T09:12:23.274Z,4.33
2019-05-12T09:13:03.981Z,4.12
2019-05-12T09:13:43.448Z,4.53
2019-05-12T09:14:23.873Z,4.67
2019-05-12T09:15:04.762Z,4.40